createdAt,value
2023-03-10T00:00:55.812Z,91.71
2023-03-10T00:03:12.723Z,90.80
2023-03-10T00:05:29.744Z,91.69
2023-03-10T00:07:48.104Z,91.05
2023-03-10T00:10:05.339Z,92.04
2023-03-10T00:12:22.591Z,91.72
2023-03-10T00:14:39.504Z,91.92
2023-03-10T00:16:56.686Z,92.93
2023-03-10T00:19:13.584Z,92.29
2023-03-10T00:21:30.934Z,91.72
2023-03-10T00:23:47.845Z,92.70
2023-03-10T00:26:05.131Z,92.76
2023-03-10T00:28:22.114Z,92.62
2023-03-10T00:30:39.070Z,92.48
2023-03-10T00:32:56.085Z,93.18
2023-03-10T00:35:12.984Z,93.31
2023-03-10T00:37:30.257Z,92.60
2023-03-10T00:39:47.289Z,92.74
2023-03-10T00:42:04.161Z,92.73
2023-03-10T00:44:21.355Z,94.03
2023-03-10T00:46:38.492Z,93.15
2023-03-10T00:48:55.459Z,93.10
2023-03-10T00:51:12.407Z,93.66
2023-03-10T00:53:29.409Z,94.26
2023-03-10T00:55:46.384Z,92.70
2023-03-10T00:58:03.477Z,93.37
2023-03-10T01:00:20.536Z,93.04
2023-03-10T01:02:37.546Z,93.39
2023-03-10T01:04:54.424Z,94.27
2023-03-10T01:07:11.471Z,94.94
2023-03-10T01:09:28.476Z,93.74
2023-03-10T01:11:45.511Z,95.19
2023-03-10T01:14:02.429Z,95.31
2023-03-10T01:16:19.510Z,94.31
2023-03-10T01:18:36.558Z,93.48
2023-03-10T01:20:53.822Z,93.58
2023-03-10T01:23:11.750Z,93.73
2023-03-10T01:25:28.800Z,94.16
2023-03-10T01:27:45.787Z,95.13
2023-03-10T01:30:03.054Z,93.43
2023-03-10T01:32:19.962Z,93.80
2023-03-10T01:34:37.282Z,94.36
2023-03-10T01:36:54.170Z,95.55
2023-03-10T01:39:11.188Z,95.49
2023-03-10T01:41:28.381Z,95.29
2023-03-10T01:43:45.331Z,94.90
2023-03-10T01:46:03.554Z,94.75
2023-03-10T01:48:21.464Z,94.51
2023-03-10T01:50:39.501Z,93.58
2023-03-10T01:52:56.801Z,93.82
2023-03-10T01:55:13.657Z,94.91
2023-03-10T01:57:30.637Z,93.89
2023-03-10T01:59:48.600Z,93.43
2023-03-10T02:02:06.018Z,94.36
2023-03-10T02:04:23.309Z,93.44
2023-03-10T02:06:40.575Z,94.48
2023-03-10T02:08:57.836Z,94.66
2023-03-10T02:11:15.152Z,94.00
2023-03-10T02:13:32.207Z,94.70
2023-03-10T02:15:49.244Z,93.96
2023-03-10T02:18:07.379Z,95.76
2023-03-10T02:20:24.735Z,94.97
2023-03-10T02:22:41.953Z,94.94
2023-03-10T02:24:59.016Z,94.99
2023-03-10T02:27:16.277Z,94.71
2023-03-10T02:29:33.625Z,95.82
2023-03-10T02:31:51.244Z,95.12
2023-03-10T02:34:08.454Z,95.16
2023-03-10T02:36:25.710Z,96.57
2023-03-10T02:38:42.833Z,95.88
2023-03-10T02:40:59.728Z,95.02
2023-03-10T02:43:16.590Z,94.55
2023-03-10T02:45:33.610Z,93.91
2023-03-10T02:47:50.946Z,94.96
2023-03-10T02:50:07.804Z,93.19
2023-03-10T02:52:25.019Z,93.11
2023-03-10T02:54:41.927Z,94.14
2023-03-10T02:56:58.933Z,94.54
2023-03-10T02:59:16.003Z,94.56
2023-03-10T03:01:32.981Z,96.22
2023-03-10T03:03:50.336Z,94.57
2023-03-10T03:06:07.413Z,93.82
2023-03-10T03:08:24.441Z,92.98
2023-03-10T03:10:41.449Z,92.93
2023-03-10T03:12:58.315Z,92.61
2023-03-10T03:15:15.451Z,92.31
2023-03-10T03:17:32.489Z,92.43
2023-03-10T03:19:49.417Z,93.30
2023-03-10T03:22:06.310Z,92.46
2023-03-10T03:24:23.597Z,92.57
2023-03-10T03:26:40.558Z,92.83
2023-03-10T03:28:57.611Z,93.58
2023-03-10T03:31:14.800Z,93.53
2023-03-10T03:33:31.783Z,93.45
2023-03-10T03:35:48.976Z,93.23
2023-03-10T03:38:05.953Z,92.73
2023-03-10T03:40:23.005Z,94.32
2023-03-10T03:42:40.334Z,94.12
2023-03-10T03:44:57.336Z,94.50
2023-03-10T03:47:14.579Z,94.45
2023-03-10T03:49:31.502Z,94.46
2023-03-10T03:51:48.458Z,94.26
2023-03-10T03:54:06.595Z,95.42
2023-03-10T03:56:23.414Z,95.10
2023-03-10T03:58:40.271Z,96.57
2023-03-10T04:00:57.630Z,96.36
2023-03-10T04:03:14.553Z,96.14
2023-03-10T04:05:31.544Z,96.17
2023-03-10T04:07:48.540Z,96.20
2023-03-10T04:10:05.580Z,96.26
2023-03-10T04:12:22.950Z,97.53
2023-03-10T04:14:40.492Z,97.27
2023-03-10T04:16:58.604Z,96.90
2023-03-10T04:19:15.568Z,96.77
2023-03-10T04:21:32.793Z,96.39
2023-03-10T04:23:49.762Z,95.75
2023-03-10T04:26:07.761Z,95.97
2023-03-10T04:28:24.691Z,96.01
2023-03-10T04:30:41.730Z,96.08
2023-03-10T04:33:00.737Z,96.68
2023-03-10T04:35:17.826Z,96.07
2023-03-10T04:37:36.104Z,96.38
2023-03-10T04:39:53.029Z,97.17
2023-03-10T04:42:10.383Z,96.86
2023-03-10T04:44:31.584Z,97.75
2023-03-10T04:46:49.069Z,97.53
2023-03-10T04:49:05.982Z,97.53
2023-03-10T04:51:23.375Z,96.79
2023-03-10T04:53:40.657Z,97.26
2023-03-10T04:55:58.003Z,96.38
2023-03-10T04:58:14.966Z,97.12
2023-03-10T05:00:32.387Z,95.85
2023-03-10T05:02:49.750Z,96.69
2023-03-10T05:05:06.817Z,96.12
2023-03-10T05:07:23.751Z,95.89
2023-03-10T05:09:40.824Z,97.27
2023-03-10T05:11:57.735Z,96.99
2023-03-10T05:14:14.799Z,96.02
2023-03-10T05:16:31.790Z,95.42
2023-03-10T05:18:48.729Z,95.91
2023-03-10T05:21:06.047Z,94.47
2023-03-10T05:23:24.121Z,95.49
2023-03-10T05:25:41.023Z,94.96
2023-03-10T05:27:58.055Z,94.17
2023-03-10T05:30:15.304Z,95.24
2023-03-10T05:32:32.682Z,94.09
2023-03-10T05:34:49.608Z,94.66
2023-03-10T05:37:06.648Z,94.05
2023-03-10T05:39:24.620Z,94.89
2023-03-10T05:41:42.120Z,94.87
2023-03-10T05:43:59.135Z,95.53
2023-03-10T05:46:16.185Z,95.53
2023-03-10T05:48:33.458Z,95.56
2023-03-10T05:50:50.508Z,95.82
2023-03-10T05:53:08.422Z,95.04
2023-03-10T05:55:25.302Z,94.78
2023-03-10T05:57:42.197Z,95.71
2023-03-10T05:59:59.520Z,95.30
2023-03-10T06:02:16.453Z,93.81
2023-03-10T06:04:33.324Z,94.59
2023-03-10T06:06:50.236Z,94.21
2023-03-10T06:09:07.170Z,94.74
2023-03-10T06:11:24.494Z,94.17
2023-03-10T06:13:41.431Z,93.24
2023-03-10T06:15:58.755Z,94.89
2023-03-10T06:18:15.767Z,93.98
2023-03-10T06:20:32.991Z,94.70
2023-03-10T06:22:49.957Z,93.74
2023-03-10T06:25:06.783Z,94.58
2023-03-10T06:27:23.940Z,94.53
2023-03-10T06:29:40.922Z,94.90
2023-03-10T06:31:58.901Z,94.00
2023-03-10T06:34:15.924Z,93.99
2023-03-10T06:36:33.171Z,94.50
2023-03-10T06:38:50.091Z,92.52
2023-03-10T06:41:07.083Z,93.90
2023-03-10T06:43:24.954Z,94.42
2023-03-10T06:45:42.003Z,94.72
2023-03-10T06:47:59.024Z,93.54
2023-03-10T06:50:15.898Z,93.99
2023-03-10T06:52:32.929Z,94.38
2023-03-10T06:54:50.269Z,93.35
2023-03-10T06:57:07.503Z,94.42
2023-03-10T06:59:24.550Z,93.21
2023-03-10T07:01:41.499Z,94.56
2023-03-10T07:03:58.460Z,93.81
2023-03-10T07:06:16.395Z,92.67
2023-03-10T07:08:34.423Z,93.21
2023-03-10T07:10:51.873Z,93.37
2023-03-10T07:13:10.229Z,93.54
2023-03-10T07:15:27.149Z,92.80
2023-03-10T07:17:44.148Z,93.21
2023-03-10T07:20:01.432Z,93.87
2023-03-10T07:22:18.758Z,93.60
2023-03-10T07:24:35.792Z,92.33
2023-03-10T07:26:52.800Z,94.22
2023-03-10T07:29:09.757Z,92.94
2023-03-10T07:31:26.773Z,92.28
2023-03-10T07:33:43.702Z,92.49
2023-03-10T07:36:00.697Z,92.19
2023-03-10T07:38:17.602Z,90.68
2023-03-10T07:40:34.536Z,91.58
2023-03-10T07:42:51.746Z,92.61
2023-03-10T07:45:08.585Z,90.86
2023-03-10T07:47:25.638Z,91.78
2023-03-10T07:49:42.505Z,90.63
2023-03-10T07:51:59.554Z,92.23
2023-03-10T07:54:16.598Z,90.50
2023-03-10T07:56:34.831Z,90.35
2023-03-10T07:58:52.108Z,90.66
2023-03-10T08:01:10.416Z,91.13
2023-03-10T08:03:27.456Z,89.81
2023-03-10T08:05:44.487Z,88.33
2023-03-10T08:08:01.409Z,87.84
2023-03-10T08:10:18.285Z,89.54
2023-03-10T08:12:35.657Z,88.33
2023-03-10T08:14:52.929Z,86.59
2023-03-10T08:17:10.284Z,87.98
2023-03-10T08:19:27.214Z,87.09
2023-03-10T08:21:44.176Z,86.56
2023-03-10T08:24:01.428Z,86.27
2023-03-10T08:26:18.498Z,86.60
2023-03-10T08:28:36.493Z,87.97
2023-03-10T08:31:04.214Z,87.58
2023-03-10T08:33:22.411Z,86.41
2023-03-10T08:35:39.367Z,86.40
2023-03-10T08:37:56.640Z,85.76
2023-03-10T08:40:13.689Z,84.17
2023-03-10T08:42:31.613Z,84.27
2023-03-10T08:44:48.545Z,85.10
2023-03-10T08:47:05.821Z,84.25
2023-03-10T08:49:22.720Z,82.20
2023-03-10T08:51:39.748Z,82.46
2023-03-10T08:53:56.723Z,82.84
2023-03-10T08:56:14.748Z,81.84
2023-03-10T08:58:31.761Z,80.73
2023-03-10T09:00:48.782Z,80.64
2023-03-10T09:03:05.766Z,81.13
2023-03-10T09:05:23.053Z,81.00
2023-03-10T09:07:40.212Z,82.73
2023-03-10T09:09:57.263Z,82.54
2023-03-10T09:12:14.284Z,83.76
2023-03-10T09:14:31.284Z,84.50
2023-03-10T09:16:48.592Z,86.06
2023-03-10T09:19:05.501Z,83.63
2023-03-10T09:21:22.533Z,84.57
2023-03-10T09:23:39.546Z,86.00
2023-03-10T09:25:56.442Z,85.41
2023-03-10T09:28:13.406Z,85.85
2023-03-10T09:30:30.489Z,85.11
2023-03-10T09:32:47.743Z,84.89
2023-03-10T09:35:04.978Z,84.91
2023-03-10T09:37:21.883Z,86.84
2023-03-10T09:39:38.848Z,85.44
2023-03-10T09:41:55.920Z,85.28
2023-03-10T09:44:12.813Z,85.19
2023-03-10T09:46:29.714Z,85.36
2023-03-10T09:48:47.133Z,85.00
2023-03-10T09:51:04.015Z,84.54
2023-03-10T09:53:20.958Z,84.80
2023-03-10T09:55:42.413Z,82.46
2023-03-10T09:58:04.267Z,83.13
2023-03-10T10:00:21.156Z,82.56
2023-03-10T10:02:38.284Z,83.30
2023-03-10T10:04:55.293Z,81.72
2023-03-10T10:07:12.568Z,82.27
2023-03-10T10:09:29.832Z,81.54
2023-03-10T10:11:46.714Z,81.05
2023-03-10T10:14:03.746Z,80.82
2023-03-10T10:16:33.618Z,79.66
2023-03-10T10:18:52.355Z,79.44
2023-03-10T10:21:10.548Z,79.13
2023-03-10T10:23:27.702Z,78.34
2023-03-10T10:25:44.980Z,78.25
2023-03-10T10:28:01.974Z,78.47
2023-03-10T10:30:18.991Z,79.89
2023-03-10T10:32:36.070Z,82.27
2023-03-10T10:34:53.377Z,81.66
2023-03-10T10:37:11.415Z,83.19
2023-03-10T10:39:28.530Z,82.73
2023-03-10T10:41:45.393Z,82.50
2023-03-10T10:44:02.494Z,82.95
2023-03-10T10:46:19.624Z,82.26
2023-03-10T10:48:36.868Z,82.23
2023-03-10T10:50:54.197Z,81.19
2023-03-10T10:53:11.139Z,79.41
2023-03-10T10:55:28.108Z,79.65
2023-03-10T10:57:45.150Z,78.46
2023-03-10T11:00:02.131Z,78.73
2023-03-10T11:02:19.270Z,78.39
2023-03-10T11:04:36.540Z,80.30
2023-03-10T11:06:53.774Z,79.00
2023-03-10T11:09:12.386Z,79.52
2023-03-10T11:11:29.842Z,79.15
2023-03-10T11:13:46.876Z,80.56
2023-03-10T11:16:04.053Z,78.88
2023-03-10T11:18:21.304Z,77.63
2023-03-10T11:20:39.337Z,78.80
2023-03-10T11:22:56.666Z,79.09
2023-03-10T11:25:13.542Z,78.09
2023-03-10T11:27:30.433Z,78.73
2023-03-10T11:29:47.542Z,79.64
2023-03-10T11:32:05.537Z,79.79
2023-03-10T11:34:22.451Z,79.90
2023-03-10T11:36:53.293Z,79.83
2023-03-10T11:39:12.034Z,80.92
2023-03-10T11:41:28.955Z,80.66
2023-03-10T11:43:45.876Z,81.14
2023-03-10T11:46:02.809Z,81.60
2023-03-10T11:48:19.817Z,82.03
2023-03-10T11:50:36.796Z,82.65
2023-03-10T11:52:53.655Z,84.21
2023-03-10T11:55:10.683Z,85.20
2023-03-10T11:57:28.022Z,84.39
2023-03-10T11:59:44.912Z,85.05
2023-03-10T12:02:03.157Z,86.07
2023-03-10T12:04:20.093Z,85.45
2023-03-10T12:06:37.362Z,85.87
2023-03-10T12:08:54.378Z,85.00
2023-03-10T12:11:11.422Z,85.57
2023-03-10T12:13:28.730Z,85.54
2023-03-10T12:15:46.081Z,84.91
2023-03-10T12:18:03.098Z,86.29
2023-03-10T12:20:20.328Z,86.32
2023-03-10T12:22:37.267Z,85.08
2023-03-10T12:24:54.590Z,86.23
2023-03-10T12:27:11.641Z,87.20
2023-03-10T12:29:28.691Z,87.18
2023-03-10T12:31:45.782Z,87.28
2023-03-10T12:34:02.732Z,87.40
2023-03-10T12:36:19.882Z,87.36
2023-03-10T12:38:36.990Z,88.53
2023-03-10T12:40:53.903Z,89.18
2023-03-10T12:43:10.918Z,88.62
2023-03-10T12:45:27.949Z,87.63
2023-03-10T12:47:46.282Z,87.75
2023-03-10T12:50:03.549Z,86.86
2023-03-10T12:52:20.513Z,87.35
2023-03-10T12:54:37.567Z,88.11
2023-03-10T12:56:54.868Z,88.30
2023-03-10T12:59:12.096Z,88.03
2023-03-10T13:01:29.455Z,87.10
2023-03-10T13:03:46.553Z,87.27
2023-03-10T13:06:03.587Z,87.01
2023-03-10T13:08:20.882Z,87.38
2023-03-10T13:10:37.995Z,87.79
2023-03-10T13:12:55.380Z,87.23
2023-03-10T13:15:12.441Z,88.21
2023-03-10T13:17:29.686Z,87.65
2023-03-10T13:19:46.634Z,85.60
2023-03-10T13:22:03.874Z,83.63
2023-03-10T13:24:20.960Z,81.84
2023-03-10T13:26:37.881Z,80.57
2023-03-10T13:28:55.124Z,81.59
2023-03-10T13:31:12.137Z,81.22
2023-03-10T13:33:29.197Z,80.43
2023-03-10T13:35:46.245Z,80.92
2023-03-10T13:38:03.595Z,80.87
2023-03-10T13:40:20.584Z,80.59
2023-03-10T13:42:44.293Z,80.96
2023-03-10T13:45:01.556Z,82.23
2023-03-10T13:47:18.819Z,80.58
2023-03-10T13:49:35.809Z,80.75
2023-03-10T13:51:53.721Z,81.01
2023-03-10T13:54:11.009Z,81.02
2023-03-10T13:56:28.039Z,81.59
2023-03-10T13:58:44.972Z,83.56
2023-03-10T14:01:02.139Z,83.33
2023-03-10T14:03:19.119Z,82.02
2023-03-10T14:05:36.099Z,81.35
2023-03-10T14:07:53.593Z,82.08
2023-03-10T14:10:10.627Z,83.33
2023-03-10T14:12:27.954Z,82.07
2023-03-10T14:14:44.948Z,81.89
2023-03-10T14:17:02.017Z,81.73
2023-03-10T14:19:19.020Z,83.68
2023-03-10T14:21:36.678Z,80.68
2023-03-10T14:23:54.737Z,79.59
2023-03-10T14:26:11.987Z,80.65
2023-03-10T14:28:29.318Z,81.50
2023-03-10T14:30:46.404Z,80.98
2023-03-10T14:33:03.324Z,81.17
2023-03-10T14:35:20.251Z,82.21
2023-03-10T14:37:37.559Z,82.94
2023-03-10T14:39:54.605Z,83.72
2023-03-10T14:42:11.895Z,82.13
2023-03-10T14:44:28.927Z,81.68
2023-03-10T14:46:46.026Z,80.42
2023-03-10T14:49:03.432Z,79.73
2023-03-10T14:51:34.564Z,80.84
2023-03-10T14:53:52.516Z,80.69
2023-03-10T14:56:09.637Z,79.17
2023-03-10T14:58:26.680Z,81.53
2023-03-10T15:00:44.715Z,80.26
2023-03-10T15:03:01.764Z,81.78
2023-03-10T15:05:19.010Z,82.43
2023-03-10T15:07:36.990Z,81.26
2023-03-10T15:10:05.320Z,80.42
2023-03-10T15:12:28.030Z,80.76
2023-03-10T15:14:44.935Z,81.50
2023-03-10T15:17:04.364Z,79.54
2023-03-10T15:19:21.599Z,80.00
2023-03-10T15:21:38.833Z,81.53
2023-03-10T15:23:56.086Z,82.18
2023-03-10T15:26:14.375Z,83.43
2023-03-10T15:28:31.317Z,84.04
2023-03-10T15:30:48.804Z,83.05
2023-03-10T15:33:05.898Z,81.43
2023-03-10T15:35:23.137Z,80.64
2023-03-10T15:37:40.484Z,81.19
2023-03-10T15:39:57.414Z,81.98
2023-03-10T15:42:14.361Z,81.69
2023-03-10T15:44:31.342Z,80.67
2023-03-10T15:46:48.352Z,81.65
2023-03-10T15:49:06.618Z,81.34
2023-03-10T15:51:23.590Z,81.98
2023-03-10T15:53:40.863Z,79.71
2023-03-10T15:55:58.172Z,80.21
2023-03-10T15:58:15.242Z,79.75
2023-03-10T16:00:32.322Z,78.89
2023-03-10T16:02:49.620Z,81.33
2023-03-10T16:05:06.630Z,77.02
2023-03-10T16:07:23.667Z,77.38
2023-03-10T16:09:40.963Z,77.55
2023-03-10T16:11:58.291Z,79.50
2023-03-10T16:14:15.271Z,78.21
2023-03-10T16:16:32.581Z,79.73
2023-03-10T16:18:49.563Z,81.26
2023-03-10T16:21:06.529Z,80.49
2023-03-10T16:23:23.615Z,81.77
2023-03-10T16:25:40.955Z,83.07
2023-03-10T16:27:58.210Z,82.00
2023-03-10T16:30:15.295Z,82.54
2023-03-10T16:32:32.396Z,82.06
2023-03-10T16:34:49.269Z,81.05
2023-03-10T16:37:06.204Z,81.04
2023-03-10T16:39:23.146Z,79.27
2023-03-10T16:41:40.227Z,79.51
2023-03-10T16:43:57.493Z,79.69
2023-03-10T16:46:14.826Z,79.38
2023-03-10T16:48:32.133Z,78.28
2023-03-10T16:50:49.102Z,78.30
2023-03-10T16:53:06.225Z,79.30
2023-03-10T16:55:23.193Z,78.47
2023-03-10T16:57:40.113Z,79.10
2023-03-10T16:59:57.074Z,78.60
2023-03-10T17:02:14.204Z,79.20
2023-03-10T17:04:31.512Z,78.59
2023-03-10T17:06:49.535Z,80.10
2023-03-10T17:09:06.568Z,79.19
2023-03-10T17:11:24.546Z,78.80
2023-03-10T17:13:41.725Z,79.18
2023-03-10T17:15:58.738Z,77.14
2023-03-10T17:18:15.704Z,79.52
2023-03-10T17:20:32.627Z,79.23
2023-03-10T17:22:49.742Z,80.13
2023-03-10T17:25:07.077Z,79.01
2023-03-10T17:27:24.356Z,81.00
2023-03-10T17:29:41.420Z,79.49
2023-03-10T17:31:58.424Z,79.98
2023-03-10T17:34:16.453Z,79.94
2023-03-10T17:36:33.484Z,80.80
2023-03-10T17:38:50.803Z,80.60
2023-03-10T17:41:07.837Z,80.27
2023-03-10T17:43:33.688Z,81.30
2023-03-10T17:45:51.249Z,81.59
2023-03-10T17:48:08.308Z,80.73
2023-03-10T17:50:25.528Z,78.31
2023-03-10T17:52:42.454Z,77.94
2023-03-10T17:54:59.514Z,77.52
2023-03-10T17:57:17.518Z,75.69
2023-03-10T17:59:34.562Z,74.29
2023-03-10T18:01:51.820Z,74.99
2023-03-10T18:04:08.995Z,73.57
2023-03-10T18:06:26.310Z,74.06
2023-03-10T18:08:43.180Z,74.05
2023-03-10T18:11:00.498Z,74.02
2023-03-10T18:13:18.240Z,75.69
2023-03-10T18:15:35.619Z,73.14
2023-03-10T18:17:52.722Z,73.84
2023-03-10T18:20:09.750Z,73.00
2023-03-10T18:22:27.089Z,75.60
2023-03-10T18:24:44.041Z,73.43
2023-03-10T18:27:01.112Z,72.74
2023-03-10T18:29:18.094Z,72.97
2023-03-10T18:31:35.111Z,71.78
2023-03-10T18:33:52.052Z,72.36
2023-03-10T18:36:09.284Z,72.12
2023-03-10T18:38:26.213Z,73.99
2023-03-10T18:40:43.183Z,71.98
2023-03-10T18:43:00.239Z,70.93
2023-03-10T18:45:17.533Z,71.71
2023-03-10T18:47:34.610Z,71.05
2023-03-10T18:49:51.772Z,71.34
2023-03-10T18:52:08.697Z,72.08
2023-03-10T18:54:25.947Z,72.33
2023-03-10T18:56:42.841Z,70.71
2023-03-10T18:58:59.923Z,69.08
2023-03-10T19:01:17.203Z,72.24
2023-03-10T19:03:34.544Z,70.27
2023-03-10T19:05:51.820Z,70.45
2023-03-10T19:08:08.937Z,73.31
2023-03-10T19:10:25.874Z,71.04
2023-03-10T19:12:43.190Z,69.89
2023-03-10T19:15:00.281Z,69.08
2023-03-10T19:17:17.245Z,70.54
2023-03-10T19:19:34.221Z,69.53
2023-03-10T19:21:51.212Z,69.22
2023-03-10T19:24:08.342Z,70.96
2023-03-10T19:26:25.419Z,70.30
2023-03-10T19:28:43.218Z,71.89
2023-03-10T19:31:00.192Z,68.63
2023-03-10T19:33:17.573Z,71.65
2023-03-10T19:35:34.530Z,70.45
2023-03-10T19:37:52.119Z,71.66
2023-03-10T19:40:09.402Z,70.87
2023-03-10T19:42:26.384Z,69.41
2023-03-10T19:44:43.724Z,69.37
2023-03-10T19:47:00.765Z,69.21
2023-03-10T19:49:19.181Z,69.66
2023-03-10T19:51:36.098Z,69.13
2023-03-10T19:53:53.120Z,69.46
2023-03-10T19:56:10.222Z,70.07
2023-03-10T19:58:27.474Z,69.52
2023-03-10T20:00:44.848Z,68.93
2023-03-10T20:03:02.134Z,70.60
2023-03-10T20:05:19.339Z,72.62
2023-03-10T20:07:37.347Z,70.58
2023-03-10T20:09:54.603Z,70.85
2023-03-10T20:12:11.866Z,70.03
2023-03-10T20:14:28.743Z,68.79
2023-03-10T20:16:46.016Z,69.76
2023-03-10T20:19:02.908Z,70.35
2023-03-10T20:21:20.203Z,69.05
2023-03-10T20:23:37.116Z,68.77
2023-03-10T20:25:54.991Z,67.77
2023-03-10T20:28:11.882Z,67.99
2023-03-10T20:30:29.952Z,69.05
2023-03-10T20:32:47.049Z,68.14
2023-03-10T20:35:04.093Z,69.94
2023-03-10T20:37:21.192Z,71.16
2023-03-10T20:39:38.556Z,69.14
2023-03-10T20:41:55.561Z,69.47
2023-03-10T20:44:12.822Z,69.73
2023-03-10T20:46:30.020Z,69.96
2023-03-10T20:48:46.997Z,71.40
2023-03-10T20:51:03.898Z,71.24
2023-03-10T20:53:21.166Z,71.83
2023-03-10T20:55:38.400Z,70.76
2023-03-10T20:57:55.340Z,70.19
2023-03-10T21:00:12.377Z,71.04
2023-03-10T21:02:29.413Z,72.05
2023-03-10T21:04:46.400Z,74.06
2023-03-10T21:07:03.314Z,75.82
2023-03-10T21:09:20.515Z,73.19
2023-03-10T21:11:37.509Z,72.95
2023-03-10T21:13:54.385Z,72.56
2023-03-10T21:16:11.266Z,72.85
2023-03-10T21:18:28.156Z,72.86
2023-03-10T21:20:45.087Z,72.14
2023-03-10T21:23:02.336Z,73.41
2023-03-10T21:25:19.715Z,75.15
2023-03-10T21:27:36.733Z,75.23
2023-03-10T21:29:53.599Z,73.03
2023-03-10T21:32:10.933Z,73.27
2023-03-10T21:34:28.047Z,71.44
2023-03-10T21:36:45.038Z,72.96
2023-03-10T21:39:02.013Z,73.64
2023-03-10T21:41:18.929Z,71.93
2023-03-10T21:43:35.957Z,72.57
2023-03-10T21:45:53.099Z,71.74
2023-03-10T21:48:10.437Z,72.43
2023-03-10T21:50:27.457Z,72.96
2023-03-10T21:52:44.617Z,72.48
2023-03-10T21:55:01.577Z,72.69
2023-03-10T21:57:18.593Z,72.62
2023-03-10T21:59:36.991Z,72.58
2023-03-10T22:01:54.184Z,70.19
2023-03-10T22:04:11.295Z,70.43
2023-03-10T22:06:28.499Z,67.92
2023-03-10T22:08:45.482Z,69.66
2023-03-10T22:11:02.809Z,68.66
2023-03-10T22:13:20.060Z,70.11
2023-03-10T22:15:37.087Z,69.04
2023-03-10T22:17:54.030Z,68.08
2023-03-10T22:20:11.069Z,68.50
2023-03-10T22:22:28.331Z,69.11
2023-03-10T22:24:45.386Z,69.63
2023-03-10T22:27:03.331Z,68.55
2023-03-10T22:29:20.415Z,71.97
2023-03-10T22:31:37.799Z,71.44
2023-03-10T22:33:55.157Z,68.79
2023-03-10T22:36:12.288Z,67.93
2023-03-10T22:38:29.592Z,67.49
2023-03-10T22:40:46.585Z,67.32
2023-03-10T22:43:03.468Z,69.32
2023-03-10T22:45:20.480Z,69.33
2023-03-10T22:47:37.414Z,70.06
2023-03-10T22:49:54.827Z,70.96
2023-03-10T22:52:12.194Z,69.93
2023-03-10T22:54:29.169Z,68.97
2023-03-10T22:56:46.296Z,66.88
2023-03-10T22:59:03.304Z,67.06
2023-03-10T23:01:20.233Z,66.56
2023-03-10T23:03:37.330Z,67.83
2023-03-10T23:05:54.352Z,67.43
2023-03-10T23:08:11.227Z,70.29
2023-03-10T23:10:28.538Z,70.05
2023-03-10T23:12:45.876Z,68.38
2023-03-10T23:15:07.023Z,68.21
2023-03-10T23:17:26.336Z,69.09
2023-03-10T23:19:43.591Z,70.48
2023-03-10T23:22:00.507Z,68.93
2023-03-10T23:24:17.653Z,69.60
2023-03-10T23:26:34.719Z,68.98
2023-03-10T23:28:52.954Z,70.32
2023-03-10T23:31:10.311Z,69.25
2023-03-10T23:33:27.681Z,68.75
2023-03-10T23:35:44.961Z,70.43
2023-03-10T23:38:02.322Z,68.79
2023-03-10T23:40:19.549Z,70.32
2023-03-10T23:42:36.893Z,70.11
2023-03-10T23:44:53.763Z,70.42
2023-03-10T23:47:10.796Z,70.64
2023-03-10T23:49:27.822Z,70.33
2023-03-10T23:51:44.778Z,71.15
2023-03-10T23:54:01.827Z,70.23
2023-03-10T23:56:20.060Z,69.53
2023-03-10T23:58:36.987Z,70.48
